createdAt,value
2022-11-24T00:01:13.034Z,7.14
2022-11-24T00:05:29.134Z,7.30
2022-11-24T00:09:45.369Z,7.41
2022-11-24T00:14:02.380Z,7.13
2022-11-24T00:18:18.533Z,7.37
2022-11-24T00:22:34.659Z,7.52
2022-11-24T00:26:50.730Z,7.46
2022-11-24T00:31:19.799Z,7.48
2022-11-24T00:35:35.914Z,7.40
2022-11-24T00:39:52.065Z,7.47
2022-11-24T00:44:08.403Z,7.55
2022-11-24T00:48:24.557Z,7.26
2022-11-24T00:52:40.649Z,7.33
2022-11-24T00:56:56.729Z,7.56
2022-11-24T01:01:16.545Z,7.59
2022-11-24T01:05:36.002Z,7.60
2022-11-24T01:09:52.068Z,7.23
2022-11-24T01:14:08.220Z,6.67
2022-11-24T01:18:24.442Z,6.95
2022-11-24T01:22:41.845Z,7.08
2022-11-24T01:26:57.987Z,6.89
2022-11-24T01:31:14.424Z,7.09
2022-11-24T01:35:30.698Z,7.18
2022-11-24T01:39:46.783Z,7.11
2022-11-24T01:44:20.042Z,6.67
2022-11-24T01:48:41.404Z,7.24
2022-11-24T01:52:58.735Z,6.96
2022-11-24T01:57:48.409Z,6.51
2022-11-24T02:02:04.972Z,5.96
2022-11-24T02:06:27.714Z,5.43
2022-11-24T02:10:45.683Z,5.79
2022-11-24T02:15:02.013Z,5.80
2022-11-24T02:19:41.452Z,5.70
2022-11-24T02:25:02.599Z,5.59
2022-11-24T02:29:20.164Z,5.90
2022-11-24T02:33:36.981Z,5.58
2022-11-24T02:37:53.071Z,5.38
2022-11-24T02:42:13.232Z,6.09
2022-11-24T02:46:29.553Z,5.26
2022-11-24T02:50:45.750Z,5.27
2022-11-24T02:55:01.896Z,5.22
2022-11-24T02:59:18.132Z,5.60
2022-11-24T03:03:34.445Z,5.27
2022-11-24T03:07:50.684Z,5.31
2022-11-24T03:12:07.109Z,5.56
2022-11-24T03:16:23.418Z,5.11
2022-11-24T03:20:39.672Z,5.04
2022-11-24T03:24:55.841Z,4.85
2022-11-24T03:29:12.062Z,4.60
2022-11-24T03:33:28.255Z,4.32
2022-11-24T03:37:44.358Z,5.10
2022-11-24T03:42:00.503Z,4.59
2022-11-24T03:46:16.656Z,4.34
2022-11-24T03:50:32.797Z,4.51
2022-11-24T03:54:48.968Z,4.27
2022-11-24T03:59:05.083Z,4.54
2022-11-24T04:03:21.354Z,4.78
2022-11-24T04:07:37.598Z,4.83
2022-11-24T04:12:12.472Z,4.19
2022-11-24T04:16:28.790Z,4.81
2022-11-24T04:20:45.099Z,4.12
2022-11-24T04:25:01.236Z,4.80
2022-11-24T04:29:17.377Z,5.13
2022-11-24T04:33:33.525Z,4.73
2022-11-24T04:37:49.654Z,4.91
2022-11-24T04:42:06.543Z,4.96
2022-11-24T04:46:22.727Z,4.67
2022-11-24T04:50:40.165Z,4.76
2022-11-24T04:54:56.233Z,4.58
2022-11-24T04:59:15.265Z,4.30
2022-11-24T05:03:31.416Z,4.08
2022-11-24T05:07:47.541Z,4.53
2022-11-24T05:12:04.050Z,4.43
2022-11-24T05:16:20.377Z,4.19
2022-11-24T05:20:36.813Z,4.35
2022-11-24T05:24:52.938Z,4.50
2022-11-24T05:29:09.074Z,3.91
2022-11-24T05:33:25.320Z,4.24
2022-11-24T05:37:41.468Z,4.24
2022-11-24T05:41:57.615Z,4.41
2022-11-24T05:46:13.859Z,4.26
2022-11-24T05:50:30.040Z,4.39
2022-11-24T05:54:46.205Z,4.64
2022-11-24T05:59:06.677Z,4.94
2022-11-24T06:03:25.672Z,4.51
2022-11-24T06:07:42.021Z,4.77
2022-11-24T06:12:01.300Z,4.56
2022-11-24T06:16:17.543Z,4.88
2022-11-24T06:20:33.827Z,5.07
2022-11-24T06:24:51.393Z,5.33
2022-11-24T06:29:07.648Z,4.67
2022-11-24T06:33:23.771Z,4.58
2022-11-24T06:37:39.937Z,4.85
2022-11-24T06:41:55.993Z,4.47
2022-11-24T06:46:13.202Z,4.85
2022-11-24T06:50:33.407Z,4.82
2022-11-24T06:54:49.959Z,4.62
2022-11-24T06:59:06.509Z,4.22
2022-11-24T07:03:22.942Z,4.82
2022-11-24T07:07:39.207Z,4.86
2022-11-24T07:11:56.904Z,4.40
2022-11-24T07:16:13.174Z,4.85
2022-11-24T07:20:29.498Z,4.52
2022-11-24T07:24:45.639Z,4.88
2022-11-24T07:29:03.742Z,4.72
2022-11-24T07:33:25.113Z,4.64
2022-11-24T07:37:41.349Z,4.96
2022-11-24T07:41:58.603Z,4.86
2022-11-24T07:46:17.000Z,5.15
2022-11-24T07:50:33.188Z,5.23
2022-11-24T07:54:49.349Z,5.52
2022-11-24T07:59:05.861Z,5.74
2022-11-24T08:03:22.440Z,5.11
2022-11-24T08:07:39.536Z,5.27
2022-11-24T08:11:55.785Z,4.70
2022-11-24T08:16:15.192Z,5.11
2022-11-24T08:20:31.616Z,5.27
2022-11-24T08:24:49.133Z,5.26
2022-11-24T08:29:05.348Z,4.97
2022-11-24T08:33:21.480Z,5.08
2022-11-24T08:37:37.559Z,5.12
2022-11-24T08:41:53.739Z,5.03
2022-11-24T08:46:17.330Z,5.41
2022-11-24T08:50:35.768Z,5.33
2022-11-24T08:54:51.921Z,5.54
2022-11-24T08:59:10.308Z,5.65
2022-11-24T09:03:26.450Z,5.25
2022-11-24T09:07:42.596Z,5.45
2022-11-24T09:11:58.722Z,6.21
2022-11-24T09:16:20.435Z,5.71
2022-11-24T09:20:36.654Z,5.74
2022-11-24T09:24:52.875Z,6.00
2022-11-24T09:29:10.268Z,6.57
2022-11-24T09:33:26.397Z,6.60
2022-11-24T09:37:44.912Z,6.72
2022-11-24T09:42:13.153Z,6.50
2022-11-24T09:46:57.487Z,6.80
2022-11-24T09:51:15.261Z,6.34
2022-11-24T09:55:49.202Z,6.95
2022-11-24T10:00:12.544Z,6.98
2022-11-24T10:04:43.905Z,7.59
2022-11-24T10:09:24.032Z,6.73
2022-11-24T10:14:03.241Z,7.32
2022-11-24T10:18:37.576Z,7.66
2022-11-24T10:23:21.392Z,7.39
2022-11-24T10:27:43.251Z,7.58
2022-11-24T10:32:00.813Z,7.24
2022-11-24T10:37:04.320Z,7.37
2022-11-24T10:41:39.317Z,7.18
2022-11-24T10:46:19.217Z,7.49
2022-11-24T10:50:40.991Z,7.09
2022-11-24T10:55:02.370Z,7.34
2022-11-24T10:59:24.609Z,7.03
2022-11-24T11:03:55.715Z,7.89
2022-11-24T11:08:14.855Z,7.99
2022-11-24T11:12:46.345Z,8.24
2022-11-24T11:17:02.879Z,8.55
2022-11-24T11:21:32.114Z,8.95
2022-11-24T11:25:48.630Z,9.49
2022-11-24T11:34:55.477Z,10.09
2022-11-24T11:39:48.845Z,9.92
2022-11-24T11:44:21.758Z,10.45
2022-11-24T11:48:43.640Z,10.85
2022-11-24T11:53:18.801Z,10.97
2022-11-24T11:57:55.715Z,10.67
2022-11-24T12:02:30.195Z,10.68
2022-11-24T12:07:14.329Z,10.51
2022-11-24T12:11:43.632Z,9.99
2022-11-24T12:16:19.025Z,10.07
2022-11-24T12:20:46.321Z,10.09
2022-11-24T12:25:20.973Z,10.49
2022-11-24T12:30:05.471Z,9.88
2022-11-24T12:34:48.611Z,9.57
2022-11-24T12:39:28.508Z,9.35
2022-11-24T12:43:52.174Z,9.62
2022-11-24T12:48:30.976Z,9.88
2022-11-24T12:52:58.846Z,9.59
2022-11-24T12:57:44.885Z,9.00
2022-11-24T13:02:24.741Z,9.11
2022-11-24T13:06:49.895Z,8.60
2022-11-24T13:11:24.440Z,8.49
2022-11-24T13:20:38.407Z,8.50
2022-11-24T13:25:13.381Z,8.99
2022-11-24T13:29:36.602Z,9.06
2022-11-24T13:33:52.818Z,9.13
2022-11-24T13:38:46.139Z,8.43
2022-11-24T13:43:02.766Z,8.61
2022-11-24T13:47:37.667Z,8.24
2022-11-24T13:51:57.651Z,8.52
2022-11-24T13:56:13.913Z,8.30
2022-11-24T14:00:58.478Z,8.22
2022-11-24T14:05:19.837Z,8.00
2022-11-24T14:09:53.923Z,7.90
2022-11-24T14:14:21.036Z,8.57
2022-11-24T14:18:39.680Z,8.20
2022-11-24T14:22:57.821Z,8.33
2022-11-24T14:27:16.987Z,7.69
2022-11-24T14:31:33.386Z,8.29
2022-11-24T14:35:51.264Z,8.41
2022-11-24T14:40:37.916Z,8.52
2022-11-24T14:45:03.947Z,8.42
2022-11-24T14:49:23.951Z,8.46
2022-11-24T14:53:47.574Z,7.80
2022-11-24T14:58:19.356Z,7.75
2022-11-24T15:03:16.236Z,8.24
2022-11-24T15:07:34.603Z,7.87
2022-11-24T15:11:51.233Z,7.60
2022-11-24T15:16:19.367Z,7.48
2022-11-24T15:20:44.772Z,7.61
2022-11-24T15:25:01.341Z,7.58
2022-11-24T15:29:17.642Z,7.11
2022-11-24T15:33:35.007Z,7.33
2022-11-24T15:37:51.435Z,7.20
2022-11-24T15:42:09.260Z,7.17
2022-11-24T15:46:28.960Z,7.28
2022-11-24T15:50:46.242Z,7.25
2022-11-24T15:55:02.459Z,7.34
2022-11-24T15:59:21.276Z,7.18
2022-11-24T16:03:52.704Z,7.28
2022-11-24T16:08:16.211Z,6.80
2022-11-24T16:12:32.808Z,7.20
2022-11-24T16:16:49.458Z,7.27
2022-11-24T16:21:07.449Z,7.06
2022-11-24T16:25:23.990Z,6.79
2022-11-24T16:29:40.641Z,6.87
2022-11-24T16:33:57.372Z,7.09
2022-11-24T16:38:20.249Z,6.38
2022-11-24T16:42:36.447Z,6.01
2022-11-24T16:46:52.531Z,6.21
2022-11-24T16:51:10.296Z,6.15
2022-11-24T16:55:26.657Z,6.17
2022-11-24T16:59:46.428Z,6.29
2022-11-24T17:04:03.261Z,6.63
2022-11-24T17:08:20.946Z,6.23
2022-11-24T17:12:37.850Z,6.15
2022-11-24T17:16:54.117Z,5.99
2022-11-24T17:21:17.553Z,6.28
2022-11-24T17:25:34.173Z,6.37
2022-11-24T17:29:50.424Z,6.51
2022-11-24T17:34:08.445Z,6.42
2022-11-24T17:38:25.037Z,5.65
2022-11-24T17:42:41.544Z,6.06
2022-11-24T17:46:59.169Z,5.19
2022-11-24T17:51:18.231Z,5.86
2022-11-24T17:55:34.956Z,5.82
2022-11-24T17:59:52.204Z,5.97
2022-11-24T18:04:08.418Z,6.12
2022-11-24T18:08:25.068Z,5.94
2022-11-24T18:12:41.239Z,5.95
2022-11-24T18:16:57.578Z,6.07
2022-11-24T18:21:16.152Z,5.89
2022-11-24T18:25:33.397Z,5.64
2022-11-24T18:29:54.825Z,5.83
2022-11-24T18:34:12.291Z,6.38
2022-11-24T18:38:29.195Z,6.09
2022-11-24T18:42:45.445Z,6.00
2022-11-24T18:47:01.637Z,5.73
2022-11-24T18:51:18.846Z,5.51
2022-11-24T18:55:35.003Z,5.49
2022-11-24T18:59:51.341Z,5.62
2022-11-24T19:04:07.598Z,5.91
2022-11-24T19:08:23.726Z,5.99
2022-11-24T19:12:39.904Z,6.20
2022-11-24T19:16:56.181Z,6.10
2022-11-24T19:21:12.491Z,6.13
2022-11-24T19:25:28.640Z,6.19
2022-11-24T19:29:44.912Z,6.13
2022-11-24T19:34:03.214Z,6.03
2022-11-24T19:38:19.476Z,5.75
2022-11-24T19:42:35.826Z,5.74
2022-11-24T19:46:52.429Z,5.38
2022-11-24T19:51:11.715Z,5.62
2022-11-24T19:55:27.871Z,5.50
2022-11-24T19:59:45.902Z,5.13
2022-11-24T20:04:04.599Z,5.08
2022-11-24T20:08:20.794Z,5.12
2022-11-24T20:12:36.989Z,5.31
2022-11-24T20:16:53.174Z,5.36
2022-11-24T20:21:11.909Z,5.24
2022-11-24T20:25:28.106Z,5.15
2022-11-24T20:29:46.955Z,5.26
2022-11-24T20:34:04.828Z,5.00
2022-11-24T20:38:21.079Z,5.32
2022-11-24T20:42:37.687Z,5.38
2022-11-24T20:46:56.982Z,5.19
2022-11-24T20:51:24.941Z,5.13
2022-11-24T20:55:41.158Z,5.27
2022-11-24T20:59:57.356Z,5.26
2022-11-24T21:04:17.315Z,5.13
2022-11-24T21:08:37.438Z,5.29
2022-11-24T21:12:53.567Z,5.30
2022-11-24T21:17:10.035Z,4.95
2022-11-24T21:21:28.469Z,5.03
2022-11-24T21:25:44.837Z,4.88
2022-11-24T21:30:01.106Z,4.78
2022-11-24T21:34:19.141Z,4.92
2022-11-24T21:38:35.497Z,5.03
2022-11-24T21:42:51.714Z,5.08
2022-11-24T21:47:07.919Z,4.81
2022-11-24T21:51:24.198Z,4.95
2022-11-24T21:55:40.411Z,4.78
2022-11-24T21:59:56.591Z,4.76
2022-11-24T22:04:12.781Z,4.87
2022-11-24T22:08:30.315Z,4.66
2022-11-24T22:12:46.535Z,4.98
2022-11-24T22:17:02.615Z,4.81
2022-11-24T22:21:30.955Z,4.79
2022-11-24T22:25:47.085Z,4.33
2022-11-24T22:30:06.139Z,4.85
2022-11-24T22:34:22.229Z,4.84
2022-11-24T22:38:38.618Z,5.00
2022-11-24T22:42:54.995Z,4.81
2022-11-24T22:47:11.162Z,4.90
2022-11-24T22:51:38.767Z,4.76
2022-11-24T22:55:54.956Z,4.72
2022-11-24T23:00:11.587Z,4.62
2022-11-24T23:04:27.781Z,4.48
2022-11-24T23:08:44.532Z,5.01
2022-11-24T23:13:00.629Z,4.85
2022-11-24T23:17:16.760Z,4.78
2022-11-24T23:21:35.131Z,5.05
2022-11-24T23:25:51.346Z,4.73
2022-11-24T23:30:08.184Z,5.00
2022-11-24T23:34:24.365Z,4.95
2022-11-24T23:38:40.942Z,5.14
2022-11-24T23:42:58.110Z,4.91
2022-11-24T23:47:14.239Z,4.96
2022-11-24T23:51:32.232Z,5.09
2022-11-24T23:55:57.181Z,4.95
